createdAt,value
2018-04-26T00:01:17.797Z,1.73
2018-04-26T00:03:48.381Z,1.93
2018-04-26T00:06:21.087Z,1.83
2018-04-26T00:08:49.539Z,1.77
2018-04-26T00:11:21.499Z,2.20
2018-04-26T00:13:50.015Z,2.10
2018-04-26T00:16:23.705Z,2.13
2018-04-26T00:18:53.186Z,2.23
2018-04-26T00:21:25.865Z,1.77
2018-04-26T00:23:54.571Z,2.10
2018-04-26T00:26:27.856Z,1.93
2018-04-26T00:28:56.301Z,1.97
2018-04-26T00:31:38.077Z,2.13
2018-04-26T00:34:06.955Z,2.07
2018-04-26T00:36:36.236Z,2.40
2018-04-26T00:39:05.721Z,2.03
2018-04-26T00:41:34.979Z,2.27
2018-04-26T00:44:04.620Z,2.50
2018-04-26T00:46:37.200Z,2.17
2018-04-26T00:49:05.927Z,2.50
2018-04-26T00:51:53.314Z,2.00
2018-04-26T00:54:21.808Z,2.20
2018-04-26T00:56:50.662Z,2.00
2018-04-26T00:59:19.438Z,2.50
2018-04-26T01:01:47.919Z,2.20
2018-04-26T01:04:17.551Z,2.20
2018-04-26T01:06:46.716Z,1.67
2018-04-26T01:09:15.194Z,1.93
2018-04-26T01:11:47.944Z,2.40
2018-04-26T01:14:17.428Z,2.47
2018-04-26T01:16:48.942Z,2.20
2018-04-26T01:19:17.859Z,2.43
2018-04-26T01:22:00.169Z,2.23
2018-04-26T01:24:29.378Z,2.00
2018-04-26T01:26:57.854Z,2.03
2018-04-26T01:29:27.616Z,2.13
2018-04-26T01:31:57.496Z,2.30
2018-04-26T01:34:25.943Z,2.07
2018-04-26T01:37:13.475Z,2.00
2018-04-26T01:39:41.952Z,2.03
2018-04-26T01:42:10.801Z,2.70
2018-04-26T01:44:39.528Z,2.40
2018-04-26T01:47:07.982Z,2.17
2018-04-26T01:49:37.466Z,2.10
2018-04-26T01:52:07.766Z,3.30
2018-04-26T01:54:37.403Z,2.20
2018-04-26T01:57:10.453Z,2.33
2018-04-26T01:59:39.586Z,2.73
2018-04-26T02:02:21.623Z,2.87
2018-04-26T02:04:51.487Z,2.93
2018-04-26T02:07:21.055Z,3.60
2018-04-26T02:09:49.530Z,2.17
2018-04-26T02:12:18.057Z,3.20
2018-04-26T02:14:48.021Z,2.73
2018-04-26T02:17:18.231Z,2.73
2018-04-26T02:19:47.863Z,3.60
2018-04-26T02:22:21.329Z,3.03
2018-04-26T02:24:50.068Z,2.77
2018-04-26T02:27:25.527Z,2.60
2018-04-26T02:29:55.043Z,2.70
2018-04-26T02:32:27.098Z,3.00
2018-04-26T02:34:56.337Z,2.27
2018-04-26T02:37:28.879Z,2.50
2018-04-26T02:39:57.711Z,2.80
2018-04-26T02:42:29.868Z,3.07
2018-04-26T02:44:58.623Z,2.73
2018-04-26T02:47:31.507Z,2.63
2018-04-26T02:49:59.958Z,2.50
2018-04-26T02:52:34.071Z,2.73
2018-04-26T02:55:02.502Z,2.50
2018-04-26T02:57:38.211Z,3.13
2018-04-26T03:00:08.125Z,2.23
2018-04-26T03:02:37.711Z,3.40
2018-04-26T03:05:06.307Z,3.33
2018-04-26T03:07:39.924Z,3.20
2018-04-26T03:10:09.177Z,3.20
2018-04-26T03:12:44.397Z,4.30
2018-04-26T03:15:12.901Z,3.10
2018-04-26T03:17:44.758Z,2.90
2018-04-26T03:20:13.468Z,3.23
2018-04-26T03:22:46.600Z,3.30
2018-04-26T03:25:15.093Z,3.63
2018-04-26T03:27:49.027Z,3.27
2018-04-26T03:30:17.903Z,3.37
2018-04-26T03:32:59.683Z,2.40
2018-04-26T03:35:29.168Z,2.50
2018-04-26T03:37:58.281Z,3.03
2018-04-26T03:40:28.226Z,3.07
2018-04-26T03:42:57.815Z,2.70
2018-04-26T03:45:26.946Z,4.07
2018-04-26T03:47:59.406Z,2.57
2018-04-26T03:50:28.603Z,3.67
2018-04-26T03:53:01.745Z,3.30
2018-04-26T03:55:30.987Z,3.60
2018-04-26T03:58:04.168Z,3.50
2018-04-26T04:02:46.247Z,3.10
2018-04-26T04:05:23.657Z,3.27
2018-04-26T04:07:53.183Z,3.53
2018-04-26T04:10:22.806Z,3.43
2018-04-26T04:12:51.285Z,3.43
2018-04-26T04:15:22.335Z,3.87
2018-04-26T04:17:51.826Z,3.83
2018-04-26T04:20:20.314Z,3.83
2018-04-26T04:22:49.029Z,4.07
2018-04-26T04:25:18.533Z,4.03
2018-04-26T04:27:47.759Z,3.80
2018-04-26T04:30:19.962Z,4.17
2018-04-26T04:32:48.434Z,4.73
2018-04-26T04:35:22.094Z,3.70
2018-04-26T04:37:50.856Z,4.33
2018-04-26T04:40:23.467Z,4.00
2018-04-26T04:42:53.051Z,4.40
2018-04-26T04:45:26.112Z,4.20
2018-04-26T04:47:54.612Z,4.10
2018-04-26T04:50:36.226Z,3.73
2018-04-26T04:53:04.817Z,4.27
2018-04-26T04:55:33.686Z,4.37
2018-04-26T04:58:03.303Z,4.70
2018-04-26T05:00:32.892Z,3.87
2018-04-26T05:03:03.283Z,4.07
2018-04-26T05:05:33.779Z,4.00
2018-04-26T05:08:02.991Z,3.20
2018-04-26T05:10:36.836Z,4.57
2018-04-26T05:13:07.077Z,3.90
2018-04-26T05:15:39.390Z,4.07
2018-04-26T05:18:08.162Z,3.50
2018-04-26T05:20:39.845Z,3.33
2018-04-26T05:23:09.207Z,4.63
2018-04-26T05:25:42.448Z,3.60
2018-04-26T05:28:12.208Z,4.17
2018-04-26T05:30:45.374Z,3.60
2018-04-26T05:33:14.680Z,3.47
2018-04-26T05:35:48.139Z,3.90
2018-04-26T05:38:18.135Z,3.10
2018-04-26T05:40:51.334Z,4.00
2018-04-26T05:43:22.842Z,4.10
2018-04-26T05:45:52.913Z,3.93
2018-04-26T05:48:22.847Z,3.63
2018-04-26T05:50:54.196Z,4.10
2018-04-26T05:53:23.071Z,3.43
2018-04-26T05:56:02.852Z,3.00
2018-04-26T05:58:31.316Z,3.80
2018-04-26T06:00:59.951Z,4.07
2018-04-26T06:05:00.946Z,3.90
2018-04-26T06:07:30.440Z,4.10
2018-04-26T06:10:12.707Z,3.20
2018-04-26T06:12:42.186Z,3.60
2018-04-26T06:15:11.396Z,3.57
2018-04-26T06:17:41.855Z,4.20
2018-04-26T06:20:11.340Z,4.10
2018-04-26T06:22:39.791Z,3.30
2018-04-26T06:25:12.702Z,4.13
2018-04-26T06:27:41.199Z,3.20
2018-04-26T06:30:14.265Z,3.27
2018-04-26T06:32:43.551Z,3.53
2018-04-26T06:35:16.737Z,4.00
2018-04-26T06:37:46.364Z,3.67
2018-04-26T06:40:27.554Z,3.77
2018-04-26T06:42:57.062Z,3.87
2018-04-26T06:45:26.229Z,3.57
2018-04-26T06:47:55.536Z,3.77
2018-04-26T06:50:24.715Z,3.87
2018-04-26T06:52:54.243Z,3.87
2018-04-26T06:55:26.472Z,4.43
2018-04-26T06:57:54.931Z,4.23
2018-04-26T07:00:28.232Z,5.30
2018-04-26T07:02:58.846Z,4.60
2018-04-26T07:05:29.586Z,4.70
2018-04-26T07:07:58.054Z,4.80
2018-04-26T07:10:31.991Z,4.37
2018-04-26T07:13:01.139Z,4.90
2018-04-26T07:15:41.971Z,5.17
2018-04-26T07:18:10.719Z,4.80
2018-04-26T07:20:39.187Z,5.73
2018-04-26T07:23:08.036Z,4.60
2018-04-26T07:25:40.516Z,4.33
2018-04-26T07:28:08.971Z,4.20
2018-04-26T07:30:41.371Z,3.90
2018-04-26T07:33:10.880Z,4.17
2018-04-26T07:35:57.180Z,4.33
2018-04-26T07:38:26.873Z,4.00
2018-04-26T07:40:55.754Z,3.80
2018-04-26T07:43:24.247Z,4.30
2018-04-26T07:45:56.657Z,4.30
2018-04-26T07:48:26.830Z,3.87
2018-04-26T07:50:57.793Z,4.20
2018-04-26T07:53:27.050Z,4.07
2018-04-26T07:55:56.313Z,3.80
2018-04-26T07:58:24.802Z,3.27
2018-04-26T08:00:55.004Z,4.43
2018-04-26T08:03:24.983Z,4.17
2018-04-26T08:05:58.595Z,3.63
2018-04-26T08:08:28.462Z,3.13
2018-04-26T08:11:00.832Z,3.73
2018-04-26T08:13:29.345Z,3.40
2018-04-26T08:16:12.563Z,4.00
2018-04-26T08:18:41.825Z,3.60
2018-04-26T08:34:14.853Z,3.50
2018-04-26T08:36:44.080Z,2.47
2018-04-26T08:39:14.911Z,3.47
2018-04-26T08:41:43.395Z,3.70
2018-04-26T08:44:16.066Z,3.13
2018-04-26T08:46:45.578Z,3.53
2018-04-26T08:49:27.784Z,4.23
2018-04-26T08:51:56.613Z,3.47
2018-04-26T08:54:25.139Z,3.50
2018-04-26T08:56:54.656Z,3.20
2018-04-26T08:59:24.192Z,3.63
2018-04-26T09:01:53.035Z,3.30
2018-04-26T09:04:25.124Z,2.50
2018-04-26T09:06:54.927Z,2.83
2018-04-26T09:09:35.903Z,3.10
2018-04-26T09:12:05.457Z,2.70
2018-04-26T09:14:35.154Z,3.37
2018-04-26T09:17:03.659Z,3.10
2018-04-26T09:19:33.716Z,3.23
2018-04-26T09:22:02.982Z,2.50
2018-04-26T09:24:34.769Z,3.03
2018-04-26T09:27:04.709Z,2.80
2018-04-26T09:29:35.125Z,2.93
2018-04-26T09:32:04.649Z,2.53
2018-04-26T09:34:45.730Z,3.33
2018-04-26T09:37:15.261Z,2.67
2018-04-26T09:39:44.024Z,2.47
2018-04-26T09:42:13.271Z,2.27
2018-04-26T09:44:42.395Z,2.47
2018-04-26T09:47:10.877Z,2.73
2018-04-26T09:49:43.399Z,2.80
2018-04-26T09:52:13.367Z,3.60
2018-04-26T09:54:47.370Z,2.80
2018-04-26T09:57:15.867Z,2.77
2018-04-26T09:59:49.233Z,3.07
2018-04-26T10:02:22.323Z,3.30
2018-04-26T10:04:55.534Z,2.50
2018-04-26T10:07:24.342Z,2.63
2018-04-26T10:09:54.632Z,2.63
2018-04-26T10:12:24.270Z,2.80
2018-04-26T10:15:05.841Z,2.70
2018-04-26T10:17:34.414Z,2.57
2018-04-26T10:20:04.451Z,2.43
2018-04-26T10:22:33.570Z,3.27
2018-04-26T10:25:02.106Z,2.77
2018-04-26T10:27:30.574Z,2.90
2018-04-26T10:30:12.548Z,2.60
2018-04-26T10:32:41.820Z,2.60
2018-04-26T10:35:10.927Z,2.67
2018-04-26T10:37:40.469Z,2.40
2018-04-26T10:40:10.950Z,3.13
2018-04-26T10:42:40.748Z,3.13
2018-04-26T10:45:12.779Z,2.83
2018-04-26T10:47:41.399Z,2.63
2018-04-26T10:50:14.703Z,3.00
2018-04-26T10:52:43.208Z,2.87
2018-04-26T10:55:25.621Z,3.50
2018-04-26T10:57:55.511Z,3.10
2018-04-26T11:00:24.191Z,2.63
2018-04-26T11:02:53.247Z,2.50
2018-04-26T11:05:22.221Z,3.27
2018-04-26T11:07:51.516Z,2.30
2018-04-26T11:10:26.097Z,2.60
2018-04-26T11:12:55.344Z,2.47
2018-04-26T11:15:27.353Z,2.60
2018-04-26T11:17:55.856Z,2.43
2018-04-26T11:20:31.708Z,2.87
2018-04-26T11:23:03.093Z,2.47
2018-04-26T11:25:33.312Z,2.97
2018-04-26T11:28:02.243Z,2.90
2018-04-26T11:30:35.741Z,3.30
2018-04-26T11:33:05.351Z,2.83
2018-04-26T11:35:38.293Z,3.03
2018-04-26T11:38:08.263Z,2.83
2018-04-26T11:40:40.691Z,2.07
2018-04-26T11:43:10.715Z,2.27
2018-04-26T11:45:41.486Z,2.50
2018-04-26T11:48:11.117Z,2.30
2018-04-26T11:50:45.342Z,2.13
2018-04-26T11:53:14.596Z,2.10
2018-04-26T11:55:56.147Z,2.40
2018-04-26T11:58:25.690Z,2.27
2018-04-26T12:00:54.616Z,2.20
2018-04-26T12:03:23.212Z,2.10
2018-04-26T12:05:53.046Z,2.53
2018-04-26T12:08:21.934Z,2.50
2018-04-26T12:10:56.021Z,2.43
2018-04-26T12:13:24.510Z,2.30
2018-04-26T12:15:58.714Z,1.93
2018-04-26T12:18:28.041Z,3.23
2018-04-26T12:21:02.904Z,3.00
2018-04-26T12:23:32.666Z,2.30
2018-04-26T12:26:04.949Z,2.40
2018-04-26T12:28:33.863Z,2.60
2018-04-26T12:31:07.251Z,2.43
2018-04-26T12:33:35.793Z,2.10
2018-04-26T12:36:08.278Z,2.20
2018-04-26T12:38:38.729Z,2.67
2018-04-26T12:41:12.275Z,1.90
2018-04-26T12:43:40.802Z,2.20
2018-04-26T12:46:14.046Z,1.90
2018-04-26T12:48:43.800Z,2.10
2018-04-26T12:51:16.633Z,2.33
2018-04-26T12:53:45.269Z,1.80
2018-04-26T12:56:18.422Z,2.40
2018-04-26T12:58:46.927Z,1.97
2018-04-26T13:01:29.153Z,2.40
2018-04-26T13:03:58.519Z,2.07
2018-04-26T13:06:27.099Z,2.30
2018-04-26T13:08:55.970Z,1.70
2018-04-26T13:11:24.555Z,1.73
2018-04-26T13:13:53.883Z,2.10
2018-04-26T13:16:36.191Z,2.10
2018-04-26T13:19:05.761Z,2.00
2018-04-26T13:21:35.248Z,2.07
2018-04-26T13:24:04.182Z,1.90
2018-04-26T13:26:33.414Z,2.10
2018-04-26T13:29:01.927Z,1.80
2018-04-26T13:31:32.895Z,2.40
2018-04-26T13:34:01.821Z,2.50
2018-04-26T13:36:36.865Z,2.97
2018-04-26T13:39:07.372Z,1.90
2018-04-26T13:41:37.901Z,2.50
2018-04-26T13:44:07.144Z,2.20
2018-04-26T13:46:39.959Z,2.77
2018-04-26T13:49:09.519Z,1.90
2018-04-26T13:51:57.105Z,2.03
2018-04-26T13:54:27.195Z,2.40
2018-04-26T13:56:56.747Z,2.40
2018-04-26T13:59:26.242Z,2.30
2018-04-26T14:01:56.201Z,2.37
2018-04-26T14:04:26.254Z,2.10
2018-04-26T14:06:54.834Z,2.53
2018-04-26T14:09:25.177Z,2.37
2018-04-26T14:11:54.191Z,2.47
2018-04-26T14:14:24.362Z,2.20
2018-04-26T14:16:55.272Z,1.83
2018-04-26T14:19:23.774Z,2.33
2018-04-26T14:21:57.239Z,2.07
2018-04-26T14:24:26.029Z,2.73
2018-04-26T14:26:59.671Z,2.07
2018-04-26T14:29:28.203Z,2.60
2018-04-26T14:32:01.999Z,1.80
2018-04-26T14:34:31.262Z,1.80
2018-04-26T14:37:01.908Z,1.80
2018-04-26T14:39:31.287Z,1.90
2018-04-26T14:42:05.407Z,2.20
2018-04-26T14:44:33.907Z,1.90
2018-04-26T14:49:47.036Z,2.57
2018-04-26T14:52:15.854Z,2.10
2018-04-26T14:54:45.378Z,1.57
2018-04-26T14:57:14.672Z,1.93
2018-04-26T14:59:43.195Z,1.80
2018-04-26T15:02:16.123Z,1.80
2018-04-26T15:04:45.376Z,2.07
2018-04-26T15:07:27.831Z,1.40
2018-04-26T15:09:57.384Z,1.83
2018-04-26T15:12:25.920Z,1.70
2018-04-26T15:14:55.465Z,1.40
2018-04-26T15:17:25.399Z,1.63
2018-04-26T15:19:54.942Z,2.00
2018-04-26T15:22:25.131Z,1.60
2018-04-26T15:24:54.064Z,1.60
2018-04-26T15:27:35.843Z,2.00
2018-04-26T15:30:05.184Z,2.03
2018-04-26T15:32:34.818Z,2.00
2018-04-26T15:35:03.325Z,1.83
2018-04-26T15:37:33.291Z,2.00
2018-04-26T15:40:02.094Z,2.03
2018-04-26T15:42:35.582Z,2.10
2018-04-26T15:45:05.323Z,2.00
2018-04-26T15:47:37.150Z,1.70
2018-04-26T15:50:06.849Z,1.60
2018-04-26T15:52:53.678Z,2.17
2018-04-26T15:55:39.425Z,1.80
2018-04-26T15:58:17.670Z,1.80
2018-04-26T16:01:01.813Z,1.80
2018-04-26T16:03:45.262Z,1.70
2018-04-26T16:07:11.831Z,1.83
2018-04-26T16:09:52.551Z,2.03
2018-04-26T16:14:40.723Z,1.70
2018-04-26T16:19:28.073Z,1.77
2018-04-26T16:22:43.773Z,2.00
2018-04-26T16:25:19.185Z,1.57
2018-04-26T16:27:59.863Z,1.47
2018-04-26T16:32:47.902Z,1.70
2018-04-26T16:37:40.506Z,2.00
2018-04-26T16:40:11.283Z,2.53
2018-04-26T16:42:39.782Z,2.20
2018-04-26T16:45:08.259Z,2.13
2018-04-26T16:47:37.105Z,1.97
2018-04-26T16:50:09.404Z,1.90
2018-04-26T16:52:39.008Z,2.30
2018-04-26T16:55:11.031Z,2.53
2018-04-26T16:57:41.071Z,2.10
2018-04-26T17:13:28.900Z,2.13
2018-04-26T17:15:58.225Z,2.10
2018-04-26T17:18:27.080Z,1.77
2018-04-26T17:20:56.657Z,2.20
2018-04-26T17:23:26.162Z,2.27
2018-04-26T17:25:55.704Z,2.07
2018-04-26T17:28:28.228Z,2.17
2018-04-26T17:30:56.731Z,2.00
2018-04-26T17:33:29.197Z,1.87
2018-04-26T17:35:58.494Z,2.03
2018-04-26T17:38:31.899Z,2.00
2018-04-26T17:41:02.489Z,1.77
2018-04-26T17:43:32.396Z,2.10
2018-04-26T17:46:02.231Z,2.30
2018-04-26T17:48:35.297Z,2.07
2018-04-26T17:51:04.190Z,1.70
2018-04-26T17:53:45.858Z,1.60
2018-04-26T17:56:14.326Z,1.73
2018-04-26T17:58:43.181Z,1.87
2018-04-26T18:01:11.728Z,2.57
2018-04-26T18:03:43.347Z,1.60
2018-04-26T18:06:13.158Z,1.60
2018-04-26T18:08:44.774Z,2.23
2018-04-26T18:11:13.254Z,2.13
2018-04-26T18:13:56.276Z,2.30
2018-04-26T18:16:26.470Z,2.23
2018-04-26T18:32:16.776Z,2.93
2018-04-26T18:34:46.091Z,5.43
2018-04-26T18:37:15.859Z,2.60
2018-04-26T18:39:44.321Z,3.20
2018-04-26T18:42:14.294Z,2.43
2018-04-26T18:44:44.173Z,2.67
2018-04-26T18:47:14.182Z,2.37
2018-04-26T18:49:43.684Z,2.70
2018-04-26T18:52:12.450Z,2.30
2018-04-26T18:54:41.330Z,2.93
2018-04-26T18:57:11.312Z,2.40
2018-04-26T18:59:40.075Z,2.10
2018-04-26T19:02:22.232Z,2.60
2018-04-26T19:04:51.067Z,2.40
2018-04-26T19:07:21.055Z,2.40
2018-04-26T19:09:50.813Z,2.70
2018-04-26T19:12:19.601Z,2.50
2018-04-26T19:14:48.479Z,1.90
2018-04-26T19:17:18.195Z,1.90
2018-04-26T19:19:48.017Z,2.20
2018-04-26T19:22:29.702Z,2.73
2018-04-26T19:24:58.824Z,2.30
2018-04-26T19:27:28.435Z,2.20
2018-04-26T19:29:57.937Z,2.60
2018-04-26T19:32:27.471Z,2.40
2018-04-26T19:34:56.966Z,3.73
2018-04-26T19:37:28.162Z,2.97
2018-04-26T19:39:57.911Z,2.30
2018-04-26T19:42:28.871Z,2.63
2018-04-26T19:44:57.345Z,2.87
2018-04-26T19:47:31.367Z,2.60
2018-04-26T19:50:00.847Z,2.60
2018-04-26T19:52:35.492Z,1.90
2018-04-26T19:55:06.063Z,2.40
2018-04-26T19:57:38.394Z,1.87
2018-04-26T20:00:06.937Z,2.50
2018-04-26T20:02:39.525Z,2.00
2018-04-26T20:05:08.404Z,2.07
2018-04-26T20:07:41.862Z,2.10
2018-04-26T20:10:10.599Z,2.40
2018-04-26T20:12:52.999Z,3.00
2018-04-26T20:15:22.841Z,2.17
2018-04-26T20:17:51.699Z,2.60
2018-04-26T20:20:21.446Z,2.20
2018-04-26T20:22:50.723Z,2.40
2018-04-26T20:25:20.426Z,2.10
2018-04-26T20:27:50.968Z,2.30
2018-04-26T20:30:21.141Z,2.53
2018-04-26T20:32:54.744Z,2.33
2018-04-26T20:35:23.610Z,2.17
2018-04-26T20:37:56.612Z,2.20
2018-04-26T20:40:26.211Z,2.30
2018-04-26T20:42:58.135Z,2.40
2018-04-26T20:45:27.953Z,2.63
2018-04-26T20:48:09.955Z,2.17
2018-04-26T20:50:40.323Z,2.03
2018-04-26T20:53:08.818Z,2.53
2018-04-26T20:55:38.416Z,2.00
2018-04-26T20:58:08.666Z,2.50
2018-04-26T21:00:38.272Z,1.87
2018-04-26T21:03:10.727Z,2.10
2018-04-26T21:05:40.463Z,2.40
2018-04-26T21:08:12.383Z,2.10
2018-04-26T21:10:40.868Z,2.30
2018-04-26T21:13:16.776Z,2.00
2018-04-26T21:15:45.345Z,1.93
2018-04-26T21:18:17.522Z,2.00
2018-04-26T21:20:47.062Z,2.03
2018-04-26T21:23:19.074Z,2.10
2018-04-26T21:25:48.315Z,2.20
2018-04-26T21:28:20.830Z,2.07
2018-04-26T21:30:50.143Z,2.40
2018-04-26T21:33:23.430Z,2.30
2018-04-26T21:35:53.951Z,1.97
2018-04-26T21:38:26.991Z,2.00
2018-04-26T21:40:56.624Z,2.00
2018-04-26T21:43:29.125Z,1.60
2018-04-26T21:45:58.741Z,1.70
2018-04-26T21:48:29.584Z,1.97
2018-04-26T21:51:04.003Z,2.10
2018-04-26T21:53:38.852Z,1.93
2018-04-26T21:56:13.889Z,1.80
2018-04-26T21:58:48.911Z,1.97
2018-04-26T22:01:23.976Z,1.90
2018-04-26T22:03:55.149Z,1.90
2018-04-26T22:06:25.334Z,1.60
2018-04-26T22:08:54.138Z,1.57
2018-04-26T22:11:25.610Z,2.20
2018-04-26T22:13:54.441Z,1.60
2018-04-26T22:16:23.530Z,2.00
2018-04-26T22:18:53.574Z,2.17
2018-04-26T22:21:23.631Z,1.93
2018-04-26T22:23:53.159Z,2.10
2018-04-26T22:26:23.002Z,1.93
2018-04-26T22:28:51.565Z,1.70
2018-04-26T22:31:21.067Z,1.63
2018-04-26T22:33:51.503Z,1.97
2018-04-26T22:36:20.039Z,1.93
2018-04-26T22:39:02.820Z,1.87
2018-04-26T22:41:31.691Z,1.80
2018-04-26T22:44:01.191Z,1.80
2018-04-26T22:46:29.635Z,1.63
2018-04-26T22:48:58.752Z,1.90
2018-04-26T22:51:28.711Z,1.87
2018-04-26T22:54:01.915Z,2.10
2018-04-26T22:56:31.699Z,2.03
2018-04-26T22:59:12.625Z,1.63
2018-04-26T23:01:41.091Z,2.20
2018-04-26T23:04:10.134Z,1.90
2018-04-26T23:06:38.577Z,2.30
2018-04-26T23:09:10.575Z,1.90
2018-04-26T23:11:40.466Z,1.63
2018-04-26T23:14:11.722Z,2.03
2018-04-26T23:16:41.855Z,1.80
2018-04-26T23:19:14.297Z,1.63
2018-04-26T23:21:43.546Z,2.20
2018-04-26T23:24:16.691Z,1.63
2018-04-26T23:26:46.167Z,1.70
2018-04-26T23:29:19.425Z,1.60
2018-04-26T23:31:48.634Z,1.87
2018-04-26T23:34:25.849Z,1.70
2018-04-26T23:36:55.061Z,2.20
2018-04-26T23:39:23.515Z,1.77
2018-04-26T23:41:52.244Z,2.40
2018-04-26T23:44:33.918Z,2.00
2018-04-26T23:47:02.509Z,1.90
2018-04-26T23:49:32.029Z,1.80
2018-04-26T23:52:01.427Z,2.03
2018-04-26T23:54:30.651Z,2.47
2018-04-26T23:56:59.400Z,1.93
2018-04-26T23:59:32.179Z,1.80
